sensor_id;sensor_type;location;lat;lon;timestamp;P1;durP1;ratioP1;P2;durP2;ratioP2
26920;SDS011;14483;47.844;9.660;2023-07-22T00:00:23;3.22;;;1.98;;
26920;SDS011;14483;47.844;9.660;2023-07-22T00:02:49;3.60;;;2.17;;
26920;SDS011;14483;47.844;9.660;2023-07-22T00:05:15;3.22;;;1.65;;
26920;SDS011;14483;47.844;9.660;2023-07-22T00:07:47;4.05;;;2.78;;
26920;SDS011;14483;47.844;9.660;2023-07-22T00:10:13;3.17;;;1.52;;
26920;SDS011;14483;47.844;9.660;2023-07-22T00:12:40;2.85;;;2.00;;
26920;SDS011;14483;47.844;9.660;2023-07-22T00:15:06;7.35;;;1.70;;
26920;SDS011;14483;47.844;9.660;2023-07-22T00:17:34;3.67;;;1.60;;
26920;SDS011;14483;47.844;9.660;2023-07-22T00:20:01;5.03;;;1.80;;
26920;SDS011;14483;47.844;9.660;2023-07-22T00:22:29;4.53;;;1.83;;
26920;SDS011;14483;47.844;9.660;2023-07-22T00:24:56;5.43;;;2.58;;
26920;SDS011;14483;47.844;9.660;2023-07-22T00:27:25;2.55;;;1.33;;
26920;SDS011;14483;47.844;9.660;2023-07-22T00:29:51;4.00;;;1.50;;
26920;SDS011;14483;47.844;9.660;2023-07-22T00:32:17;3.22;;;1.38;;
26920;SDS011;14483;47.844;9.660;2023-07-22T00:34:45;2.83;;;1.70;;
26920;SDS011;14483;47.844;9.660;2023-07-22T00:37:11;5.95;;;2.60;;
26920;SDS011;14483;47.844;9.660;2023-07-22T00:39:38;5.50;;;1.65;;
26920;SDS011;14483;47.844;9.660;2023-07-22T00:42:04;4.20;;;1.58;;
26920;SDS011;14483;47.844;9.660;2023-07-22T00:44:33;4.00;;;1.33;;
26920;SDS011;14483;47.844;9.660;2023-07-22T00:46:59;6.93;;;1.90;;
26920;SDS011;14483;47.844;9.660;2023-07-22T00:49:26;4.25;;;1.70;;
26920;SDS011;14483;47.844;9.660;2023-07-22T00:51:55;2.95;;;1.38;;
26920;SDS011;14483;47.844;9.660;2023-07-22T00:54:22;4.40;;;1.60;;
26920;SDS011;14483;47.844;9.660;2023-07-22T00:56:48;2.55;;;1.60;;
26920;SDS011;14483;47.844;9.660;2023-07-22T00:59:14;3.35;;;1.50;;
26920;SDS011;14483;47.844;9.660;2023-07-22T01:01:41;2.17;;;1.20;;
26920;SDS011;14483;47.844;9.660;2023-07-22T01:04:07;6.10;;;1.98;;
26920;SDS011;14483;47.844;9.660;2023-07-22T01:06:34;2.85;;;1.50;;
26920;SDS011;14483;47.844;9.660;2023-07-22T01:09:02;2.50;;;1.60;;
26920;SDS011;14483;47.844;9.660;2023-07-22T01:11:32;2.30;;;1.60;;
26920;SDS011;14483;47.844;9.660;2023-07-22T01:13:58;2.80;;;1.40;;
26920;SDS011;14483;47.844;9.660;2023-07-22T01:16:25;4.68;;;2.17;;
26920;SDS011;14483;47.844;9.660;2023-07-22T01:18:52;2.40;;;1.58;;
26920;SDS011;14483;47.844;9.660;2023-07-22T01:21:19;2.13;;;1.23;;
26920;SDS011;14483;47.844;9.660;2023-07-22T01:23:47;4.82;;;1.33;;
26920;SDS011;14483;47.844;9.660;2023-07-22T01:26:14;4.13;;;1.30;;
26920;SDS011;14483;47.844;9.660;2023-07-22T01:28:40;2.92;;;1.10;;
26920;SDS011;14483;47.844;9.660;2023-07-22T01:31:06;4.68;;;1.83;;
26920;SDS011;14483;47.844;9.660;2023-07-22T01:33:33;3.28;;;1.85;;
26920;SDS011;14483;47.844;9.660;2023-07-22T01:35:59;2.22;;;1.17;;
26920;SDS011;14483;47.844;9.660;2023-07-22T01:38:26;3.00;;;1.02;;
26920;SDS011;14483;47.844;9.660;2023-07-22T01:40:55;4.70;;;1.17;;
26920;SDS011;14483;47.844;9.660;2023-07-22T01:43:22;4.03;;;1.33;;
26920;SDS011;14483;47.844;9.660;2023-07-22T01:45:48;7.55;;;1.77;;
26920;SDS011;14483;47.844;9.660;2023-07-22T01:48:15;3.17;;;1.25;;
26920;SDS011;14483;47.844;9.660;2023-07-22T01:50:41;4.47;;;1.40;;
26920;SDS011;14483;47.844;9.660;2023-07-22T01:53:07;2.50;;;1.27;;
26920;SDS011;14483;47.844;9.660;2023-07-22T01:55:34;2.92;;;1.10;;
26920;SDS011;14483;47.844;9.660;2023-07-22T01:58:01;1.27;;;0.90;;
26920;SDS011;14483;47.844;9.660;2023-07-22T02:00:28;2.40;;;1.20;;
26920;SDS011;14483;47.844;9.660;2023-07-22T02:02:54;5.32;;;1.45;;
26920;SDS011;14483;47.844;9.660;2023-07-22T02:05:21;2.00;;;0.98;;
26920;SDS011;14483;47.844;9.660;2023-07-22T02:07:48;2.13;;;1.30;;
26920;SDS011;14483;47.844;9.660;2023-07-22T02:10:14;5.88;;;1.10;;
26920;SDS011;14483;47.844;9.660;2023-07-22T02:12:40;2.60;;;1.70;;
26920;SDS011;14483;47.844;9.660;2023-07-22T02:15:09;3.45;;;1.20;;
26920;SDS011;14483;47.844;9.660;2023-07-22T02:17:36;1.85;;;1.02;;
26920;SDS011;14483;47.844;9.660;2023-07-22T02:20:02;5.45;;;1.20;;
26920;SDS011;14483;47.844;9.660;2023-07-22T02:22:29;2.10;;;1.38;;
26920;SDS011;14483;47.844;9.660;2023-07-22T02:24:56;4.20;;;1.35;;
26920;SDS011;14483;47.844;9.660;2023-07-22T02:27:22;1.90;;;1.02;;
26920;SDS011;14483;47.844;9.660;2023-07-22T02:29:49;7.20;;;1.35;;
26920;SDS011;14483;47.844;9.660;2023-07-22T02:32:18;1.83;;;1.10;;
26920;SDS011;14483;47.844;9.660;2023-07-22T02:34:45;4.80;;;1.55;;
26920;SDS011;14483;47.844;9.660;2023-07-22T02:37:11;3.85;;;1.23;;
26920;SDS011;14483;47.844;9.660;2023-07-22T02:39:37;2.72;;;1.40;;
26920;SDS011;14483;47.844;9.660;2023-07-22T02:42:04;3.17;;;1.10;;
26920;SDS011;14483;47.844;9.660;2023-07-22T02:44:30;3.95;;;1.30;;
26920;SDS011;14483;47.844;9.660;2023-07-22T02:46:57;4.72;;;1.15;;
26920;SDS011;14483;47.844;9.660;2023-07-22T02:49:24;2.15;;;1.42;;
26920;SDS011;14483;47.844;9.660;2023-07-22T02:51:51;2.58;;;1.00;;
26920;SDS011;14483;47.844;9.660;2023-07-22T02:54:17;2.53;;;1.20;;
26920;SDS011;14483;47.844;9.660;2023-07-22T02:56:43;2.47;;;1.10;;
26920;SDS011;14483;47.844;9.660;2023-07-22T02:59:10;3.53;;;1.50;;
26920;SDS011;14483;47.844;9.660;2023-07-22T03:01:36;4.22;;;1.23;;
26920;SDS011;14483;47.844;9.660;2023-07-22T03:04:04;5.22;;;1.13;;
26920;SDS011;14483;47.844;9.660;2023-07-22T03:06:32;3.97;;;1.02;;
26920;SDS011;14483;47.844;9.660;2023-07-22T03:08:58;2.78;;;1.48;;
26920;SDS011;14483;47.844;9.660;2023-07-22T03:11:24;4.35;;;1.17;;
26920;SDS011;14483;47.844;9.660;2023-07-22T03:13:52;2.78;;;1.42;;
26920;SDS011;14483;47.844;9.660;2023-07-22T03:16:18;2.53;;;1.40;;
26920;SDS011;14483;47.844;9.660;2023-07-22T03:18:45;6.32;;;1.63;;
26920;SDS011;14483;47.844;9.660;2023-07-22T03:21:11;3.05;;;1.35;;
26920;SDS011;14483;47.844;9.660;2023-07-22T03:23:39;3.08;;;1.05;;
26920;SDS011;14483;47.844;9.660;2023-07-22T03:26:05;3.22;;;1.20;;
26920;SDS011;14483;47.844;9.660;2023-07-22T03:28:32;3.83;;;1.13;;
26920;SDS011;14483;47.844;9.660;2023-07-22T03:30:58;4.72;;;0.98;;
26920;SDS011;14483;47.844;9.660;2023-07-22T03:33:24;3.55;;;1.23;;
26920;SDS011;14483;47.844;9.660;2023-07-22T03:35:51;3.13;;;1.35;;
26920;SDS011;14483;47.844;9.660;2023-07-22T03:38:17;3.58;;;1.38;;
26920;SDS011;14483;47.844;9.660;2023-07-22T03:40:45;3.17;;;1.17;;
26920;SDS011;14483;47.844;9.660;2023-07-22T03:43:12;5.82;;;1.02;;
26920;SDS011;14483;47.844;9.660;2023-07-22T03:45:38;2.85;;;1.20;;
26920;SDS011;14483;47.844;9.660;2023-07-22T03:48:05;2.75;;;1.20;;
26920;SDS011;14483;47.844;9.660;2023-07-22T03:50:31;2.30;;;1.20;;
26920;SDS011;14483;47.844;9.660;2023-07-22T03:52:58;4.32;;;1.23;;
26920;SDS011;14483;47.844;9.660;2023-07-22T03:55:25;2.05;;;1.23;;
26920;SDS011;14483;47.844;9.660;2023-07-22T03:57:52;2.90;;;1.58;;
26920;SDS011;14483;47.844;9.660;2023-07-22T04:00:19;5.78;;;1.23;;
26920;SDS011;14483;47.844;9.660;2023-07-22T04:02:46;3.30;;;1.70;;
26920;SDS011;14483;47.844;9.660;2023-07-22T04:05:12;4.60;;;1.58;;
26920;SDS011;14483;47.844;9.660;2023-07-22T04:07:39;2.20;;;1.45;;
26920;SDS011;14483;47.844;9.660;2023-07-22T04:10:05;3.20;;;1.48;;
26920;SDS011;14483;47.844;9.660;2023-07-22T04:12:32;2.72;;;1.42;;
26920;SDS011;14483;47.844;9.660;2023-07-22T04:15:00;4.38;;;1.73;;
26920;SDS011;14483;47.844;9.660;2023-07-22T04:17:26;3.38;;;1.48;;
26920;SDS011;14483;47.844;9.660;2023-07-22T04:19:52;3.42;;;1.70;;
26920;SDS011;14483;47.844;9.660;2023-07-22T04:22:19;2.22;;;1.40;;
26920;SDS011;14483;47.844;9.660;2023-07-22T04:24:46;2.70;;;1.60;;
26920;SDS011;14483;47.844;9.660;2023-07-22T04:27:13;2.50;;;1.60;;
26920;SDS011;14483;47.844;9.660;2023-07-22T04:29:40;6.38;;;1.67;;
26920;SDS011;14483;47.844;9.660;2023-07-22T04:32:08;4.82;;;1.55;;
26920;SDS011;14483;47.844;9.660;2023-07-22T04:34:34;3.42;;;1.20;;
26920;SDS011;14483;47.844;9.660;2023-07-22T04:37:01;2.22;;;1.25;;
26920;SDS011;14483;47.844;9.660;2023-07-22T04:39:27;3.08;;;1.67;;
26920;SDS011;14483;47.844;9.660;2023-07-22T04:41:53;2.90;;;1.38;;
26920;SDS011;14483;47.844;9.660;2023-07-22T04:44:20;6.28;;;1.92;;
26920;SDS011;14483;47.844;9.660;2023-07-22T04:46:46;2.92;;;1.42;;
26920;SDS011;14483;47.844;9.660;2023-07-22T04:49:14;2.90;;;1.30;;
26920;SDS011;14483;47.844;9.660;2023-07-22T04:51:42;4.53;;;1.48;;
26920;SDS011;14483;47.844;9.660;2023-07-22T04:54:09;3.15;;;1.30;;
26920;SDS011;14483;47.844;9.660;2023-07-22T04:56:35;5.47;;;1.48;;
26920;SDS011;14483;47.844;9.660;2023-07-22T04:59:02;2.47;;;1.10;;
26920;SDS011;14483;47.844;9.660;2023-07-22T05:01:29;2.63;;;1.35;;
26920;SDS011;14483;47.844;9.660;2023-07-22T05:03:55;4.47;;;1.60;;
26920;SDS011;14483;47.844;9.660;2023-07-22T05:06:24;9.80;;;3.05;;
26920;SDS011;14483;47.844;9.660;2023-07-22T05:08:50;6.20;;;3.03;;
26920;SDS011;14483;47.844;9.660;2023-07-22T05:11:16;11.02;;;3.50;;
26920;SDS011;14483;47.844;9.660;2023-07-22T05:13:43;9.25;;;3.10;;
26920;SDS011;14483;47.844;9.660;2023-07-22T05:16:09;9.02;;;3.47;;
26920;SDS011;14483;47.844;9.660;2023-07-22T05:18:36;11.10;;;4.20;;
26920;SDS011;14483;47.844;9.660;2023-07-22T05:21:03;7.07;;;3.45;;
26920;SDS011;14483;47.844;9.660;2023-07-22T05:23:31;12.85;;;4.10;;
26920;SDS011;14483;47.844;9.660;2023-07-22T05:25:58;16.42;;;4.22;;
26920;SDS011;14483;47.844;9.660;2023-07-22T05:28:24;13.35;;;3.90;;
26920;SDS011;14483;47.844;9.660;2023-07-22T05:30:50;14.85;;;3.95;;
26920;SDS011;14483;47.844;9.660;2023-07-22T05:33:17;10.15;;;3.78;;
26920;SDS011;14483;47.844;9.660;2023-07-22T05:35:43;13.65;;;4.20;;
26920;SDS011;14483;47.844;9.660;2023-07-22T05:38:09;10.95;;;4.20;;
26920;SDS011;14483;47.844;9.660;2023-07-22T05:40:37;9.48;;;4.07;;
26920;SDS011;14483;47.844;9.660;2023-07-22T05:43:03;11.63;;;3.85;;
26920;SDS011;14483;47.844;9.660;2023-07-22T05:45:30;14.52;;;3.92;;
26920;SDS011;14483;47.844;9.660;2023-07-22T05:47:56;9.30;;;4.28;;
26920;SDS011;14483;47.844;9.660;2023-07-22T05:50:22;13.73;;;4.65;;
26920;SDS011;14483;47.844;9.660;2023-07-22T05:52:49;9.00;;;4.32;;
26920;SDS011;14483;47.844;9.660;2023-07-22T05:55:15;7.75;;;4.20;;
26920;SDS011;14483;47.844;9.660;2023-07-22T05:57:43;8.07;;;4.20;;
26920;SDS011;14483;47.844;9.660;2023-07-22T06:00:10;7.90;;;4.35;;
26920;SDS011;14483;47.844;9.660;2023-07-22T06:02:38;9.73;;;4.28;;
26920;SDS011;14483;47.844;9.660;2023-07-22T06:05:04;8.57;;;4.30;;
26920;SDS011;14483;47.844;9.660;2023-07-22T06:07:31;8.65;;;4.60;;
26920;SDS011;14483;47.844;9.660;2023-07-22T06:09:57;8.88;;;4.93;;
26920;SDS011;14483;47.844;9.660;2023-07-22T06:12:24;7.72;;;4.53;;
26920;SDS011;14483;47.844;9.660;2023-07-22T06:14:51;8.63;;;4.90;;
26920;SDS011;14483;47.844;9.660;2023-07-22T06:17:18;12.02;;;4.82;;
26920;SDS011;14483;47.844;9.660;2023-07-22T06:19:45;8.07;;;5.18;;
26920;SDS011;14483;47.844;9.660;2023-07-22T06:22:11;9.13;;;5.72;;
26920;SDS011;14483;47.844;9.660;2023-07-22T06:24:38;7.82;;;5.10;;
26920;SDS011;14483;47.844;9.660;2023-07-22T06:27:04;9.65;;;5.82;;
26920;SDS011;14483;47.844;9.660;2023-07-22T06:29:31;12.55;;;5.97;;
26920;SDS011;14483;47.844;9.660;2023-07-22T06:31:59;9.38;;;5.47;;
26920;SDS011;14483;47.844;9.660;2023-07-22T06:34:25;8.65;;;5.93;;
26920;SDS011;14483;47.844;9.660;2023-07-22T06:36:52;9.98;;;5.57;;
26920;SDS011;14483;47.844;9.660;2023-07-22T06:39:19;6.88;;;4.53;;
26920;SDS011;14483;47.844;9.660;2023-07-22T06:41:45;10.13;;;5.78;;
26920;SDS011;14483;47.844;9.660;2023-07-22T06:44:11;7.18;;;4.85;;
26920;SDS011;14483;47.844;9.660;2023-07-22T06:46:38;9.93;;;5.35;;
26920;SDS011;14483;47.844;9.660;2023-07-22T06:49:05;8.13;;;4.65;;
26920;SDS011;14483;47.844;9.660;2023-07-22T06:51:32;7.70;;;4.75;;
26920;SDS011;14483;47.844;9.660;2023-07-22T06:53:58;8.55;;;4.88;;
26920;SDS011;14483;47.844;9.660;2023-07-22T06:56:25;9.00;;;5.78;;
26920;SDS011;14483;47.844;9.660;2023-07-22T06:58:52;7.65;;;4.90;;
26920;SDS011;14483;47.844;9.660;2023-07-22T07:01:18;7.97;;;5.13;;
26920;SDS011;14483;47.844;9.660;2023-07-22T07:03:44;9.50;;;5.00;;
26920;SDS011;14483;47.844;9.660;2023-07-22T07:06:12;7.97;;;6.03;;
26920;SDS011;14483;47.844;9.660;2023-07-22T07:08:39;11.35;;;5.65;;
26920;SDS011;14483;47.844;9.660;2023-07-22T07:11:05;7.35;;;4.95;;
26920;SDS011;14483;47.844;9.660;2023-07-22T07:13:31;7.60;;;4.57;;
26920;SDS011;14483;47.844;9.660;2023-07-22T07:16:09;6.88;;;4.07;;
26920;SDS011;14483;47.844;9.660;2023-07-22T07:18:45;5.60;;;4.85;;
26920;SDS011;14483;47.844;9.660;2023-07-22T07:21:12;6.78;;;4.25;;
26920;SDS011;14483;47.844;9.660;2023-07-22T07:23:39;6.80;;;4.68;;
26920;SDS011;14483;47.844;9.660;2023-07-22T07:26:05;6.43;;;4.57;;
26920;SDS011;14483;47.844;9.660;2023-07-22T07:28:31;8.15;;;4.70;;
26920;SDS011;14483;47.844;9.660;2023-07-22T07:30:58;6.50;;;4.63;;
26920;SDS011;14483;47.844;9.660;2023-07-22T07:33:24;9.48;;;5.28;;
26920;SDS011;14483;47.844;9.660;2023-07-22T07:35:51;10.32;;;5.18;;
26920;SDS011;14483;47.844;9.660;2023-07-22T07:38:18;7.82;;;5.10;;
26920;SDS011;14483;47.844;9.660;2023-07-22T07:40:45;6.80;;;5.13;;
26920;SDS011;14483;47.844;9.660;2023-07-22T07:43:11;5.07;;;4.07;;
26920;SDS011;14483;47.844;9.660;2023-07-22T07:45:38;8.43;;;4.50;;
26920;SDS011;14483;47.844;9.660;2023-07-22T07:48:04;8.70;;;4.72;;
26920;SDS011;14483;47.844;9.660;2023-07-22T07:50:32;9.95;;;4.50;;
26920;SDS011;14483;47.844;9.660;2023-07-22T07:52:58;6.13;;;4.63;;
26920;SDS011;14483;47.844;9.660;2023-07-22T07:55:26;6.63;;;4.68;;
26920;SDS011;14483;47.844;9.660;2023-07-22T07:57:52;6.05;;;4.47;;
26920;SDS011;14483;47.844;9.660;2023-07-22T08:00:19;6.28;;;3.42;;
26920;SDS011;14483;47.844;9.660;2023-07-22T08:02:46;6.68;;;4.10;;
26920;SDS011;14483;47.844;9.660;2023-07-22T08:05:12;5.93;;;3.65;;
26920;SDS011;14483;47.844;9.660;2023-07-22T08:07:39;5.00;;;3.30;;
26920;SDS011;14483;47.844;9.660;2023-07-22T08:10:05;4.15;;;3.03;;
26920;SDS011;14483;47.844;9.660;2023-07-22T08:12:33;4.43;;;2.78;;
26920;SDS011;14483;47.844;9.660;2023-07-22T08:15:00;5.20;;;2.38;;
26920;SDS011;14483;47.844;9.660;2023-07-22T08:17:26;5.05;;;2.40;;
26920;SDS011;14483;47.844;9.660;2023-07-22T08:19:53;4.60;;;1.85;;
26920;SDS011;14483;47.844;9.660;2023-07-22T08:22:19;3.25;;;1.65;;
26920;SDS011;14483;47.844;9.660;2023-07-22T08:24:45;3.55;;;1.35;;
26920;SDS011;14483;47.844;9.660;2023-07-22T08:27:12;5.25;;;2.05;;
26920;SDS011;14483;47.844;9.660;2023-07-22T08:29:39;2.83;;;1.50;;
26920;SDS011;14483;47.844;9.660;2023-07-22T08:32:06;2.83;;;1.48;;
26920;SDS011;14483;47.844;9.660;2023-07-22T08:34:32;3.35;;;1.52;;
26920;SDS011;14483;47.844;9.660;2023-07-22T08:36:58;3.00;;;1.80;;
26920;SDS011;14483;47.844;9.660;2023-07-22T08:39:25;2.08;;;1.10;;
26920;SDS011;14483;47.844;9.660;2023-07-22T08:41:51;5.13;;;1.58;;
26920;SDS011;14483;47.844;9.660;2023-07-22T08:44:19;4.95;;;1.60;;
26920;SDS011;14483;47.844;9.660;2023-07-22T08:46:47;3.75;;;1.67;;
26920;SDS011;14483;47.844;9.660;2023-07-22T08:49:15;2.88;;;1.40;;
26920;SDS011;14483;47.844;9.660;2023-07-22T08:51:42;5.43;;;1.70;;
26920;SDS011;14483;47.844;9.660;2023-07-22T08:54:10;3.85;;;1.92;;
26920;SDS011;14483;47.844;9.660;2023-07-22T08:56:36;4.43;;;1.67;;
26920;SDS011;14483;47.844;9.660;2023-07-22T08:59:04;2.65;;;1.23;;
26920;SDS011;14483;47.844;9.660;2023-07-22T09:01:31;4.72;;;1.48;;
26920;SDS011;14483;47.844;9.660;2023-07-22T09:03:59;6.53;;;1.10;;
26920;SDS011;14483;47.844;9.660;2023-07-22T09:06:25;4.28;;;1.50;;
26920;SDS011;14483;47.844;9.660;2023-07-22T09:08:52;2.85;;;1.40;;
26920;SDS011;14483;47.844;9.660;2023-07-22T09:11:19;2.72;;;1.55;;
26920;SDS011;14483;47.844;9.660;2023-07-22T09:13:45;2.97;;;1.52;;
26920;SDS011;14483;47.844;9.660;2023-07-22T09:16:12;2.88;;;1.30;;
26920;SDS011;14483;47.844;9.660;2023-07-22T09:18:39;1.73;;;1.10;;
26920;SDS011;14483;47.844;9.660;2023-07-22T09:21:06;4.95;;;1.25;;
26920;SDS011;14483;47.844;9.660;2023-07-22T09:23:33;2.67;;;1.55;;
26920;SDS011;14483;47.844;9.660;2023-07-22T09:26:09;4.55;;;1.15;;
26920;SDS011;14483;47.844;9.660;2023-07-22T09:31:17;2.20;;;1.30;;
26920;SDS011;14483;47.844;9.660;2023-07-22T09:33:43;3.00;;;1.30;;
26920;SDS011;14483;47.844;9.660;2023-07-22T09:36:11;2.20;;;1.40;;
26920;SDS011;14483;47.844;9.660;2023-07-22T09:38:37;2.30;;;1.33;;
26920;SDS011;14483;47.844;9.660;2023-07-22T09:41:04;2.63;;;0.93;;
26920;SDS011;14483;47.844;9.660;2023-07-22T09:43:30;1.50;;;0.85;;
26920;SDS011;14483;47.844;9.660;2023-07-22T09:46:04;5.03;;;1.13;;
26920;SDS011;14483;47.844;9.660;2023-07-22T09:48:38;2.40;;;0.88;;
26920;SDS011;14483;47.844;9.660;2023-07-22T09:51:05;4.03;;;1.10;;
26920;SDS011;14483;47.844;9.660;2023-07-22T09:53:32;1.80;;;1.20;;
26920;SDS011;14483;47.844;9.660;2023-07-22T09:56:03;5.20;;;1.45;;
26920;SDS011;14483;47.844;9.660;2023-07-22T09:58:29;1.77;;;1.23;;
26920;SDS011;14483;47.844;9.660;2023-07-22T10:00:56;1.60;;;0.98;;
26920;SDS011;14483;47.844;9.660;2023-07-22T10:03:23;1.85;;;0.98;;
26920;SDS011;14483;47.844;9.660;2023-07-22T10:05:50;3.55;;;1.20;;
26920;SDS011;14483;47.844;9.660;2023-07-22T10:08:17;2.17;;;1.00;;
26920;SDS011;14483;47.844;9.660;2023-07-22T10:10:45;2.70;;;0.80;;
26920;SDS011;14483;47.844;9.660;2023-07-22T10:13:12;4.50;;;1.00;;
26920;SDS011;14483;47.844;9.660;2023-07-22T10:15:38;2.00;;;1.10;;
26920;SDS011;14483;47.844;9.660;2023-07-22T10:18:05;1.73;;;0.82;;
26920;SDS011;14483;47.844;9.660;2023-07-22T10:20:31;2.40;;;1.00;;
26920;SDS011;14483;47.844;9.660;2023-07-22T10:22:59;2.20;;;0.82;;
26920;SDS011;14483;47.844;9.660;2023-07-22T10:25:26;1.35;;;0.98;;
26920;SDS011;14483;47.844;9.660;2023-07-22T10:27:54;1.42;;;0.70;;
26920;SDS011;14483;47.844;9.660;2023-07-22T10:30:20;1.73;;;1.00;;
26920;SDS011;14483;47.844;9.660;2023-07-22T10:32:47;2.58;;;1.10;;
26920;SDS011;14483;47.844;9.660;2023-07-22T10:35:16;1.65;;;0.90;;
26920;SDS011;14483;47.844;9.660;2023-07-22T10:37:44;1.92;;;1.23;;
26920;SDS011;14483;47.844;9.660;2023-07-22T10:40:25;3.67;;;1.13;;
26920;SDS011;14483;47.844;9.660;2023-07-22T10:42:52;2.42;;;1.13;;
26920;SDS011;14483;47.844;9.660;2023-07-22T10:45:27;5.82;;;1.75;;
26920;SDS011;14483;47.844;9.660;2023-07-22T10:48:01;2.33;;;1.08;;
26920;SDS011;14483;47.844;9.660;2023-07-22T10:50:37;2.13;;;0.90;;
26920;SDS011;14483;47.844;9.660;2023-07-22T10:53:04;4.13;;;1.20;;
26920;SDS011;14483;47.844;9.660;2023-07-22T10:55:31;2.17;;;1.00;;
26920;SDS011;14483;47.844;9.660;2023-07-22T10:57:58;2.20;;;0.88;;
26920;SDS011;14483;47.844;9.660;2023-07-22T11:00:30;2.10;;;1.10;;
26920;SDS011;14483;47.844;9.660;2023-07-22T11:03:09;2.97;;;1.10;;
26920;SDS011;14483;47.844;9.660;2023-07-22T11:05:48;4.20;;;1.20;;
26920;SDS011;14483;47.844;9.660;2023-07-22T11:08:15;4.43;;;1.30;;
26920;SDS011;14483;47.844;9.660;2023-07-22T11:10:51;3.20;;;1.17;;
26920;SDS011;14483;47.844;9.660;2023-07-22T11:13:18;3.15;;;0.85;;
26920;SDS011;14483;47.844;9.660;2023-07-22T11:15:48;2.30;;;1.25;;
26920;SDS011;14483;47.844;9.660;2023-07-22T11:18:14;1.75;;;1.00;;
26920;SDS011;14483;47.844;9.660;2023-07-22T11:20:41;4.22;;;1.13;;
26920;SDS011;14483;47.844;9.660;2023-07-22T11:23:07;4.03;;;1.15;;
26920;SDS011;14483;47.844;9.660;2023-07-22T11:25:34;2.10;;;0.93;;
26920;SDS011;14483;47.844;9.660;2023-07-22T11:28:01;3.28;;;1.20;;
26920;SDS011;14483;47.844;9.660;2023-07-22T11:30:27;2.00;;;1.00;;
26920;SDS011;14483;47.844;9.660;2023-07-22T11:32:56;3.17;;;1.00;;
26920;SDS011;14483;47.844;9.660;2023-07-22T11:35:24;2.25;;;1.40;;
26920;SDS011;14483;47.844;9.660;2023-07-22T11:37:51;3.28;;;1.30;;
26920;SDS011;14483;47.844;9.660;2023-07-22T11:40:32;3.58;;;1.20;;
26920;SDS011;14483;47.844;9.660;2023-07-22T11:42:58;2.05;;;1.30;;
26920;SDS011;14483;47.844;9.660;2023-07-22T11:45:25;2.75;;;1.20;;
26920;SDS011;14483;47.844;9.660;2023-07-22T11:47:51;2.88;;;0.90;;
26920;SDS011;14483;47.844;9.660;2023-07-22T11:50:19;1.92;;;1.00;;
26920;SDS011;14483;47.844;9.660;2023-07-22T11:52:56;3.15;;;1.83;;
26920;SDS011;14483;47.844;9.660;2023-07-22T11:55:23;3.22;;;1.40;;
26920;SDS011;14483;47.844;9.660;2023-07-22T11:57:51;3.58;;;1.05;;
26920;SDS011;14483;47.844;9.660;2023-07-22T12:00:18;2.75;;;1.40;;
26920;SDS011;14483;47.844;9.660;2023-07-22T12:02:44;3.15;;;1.10;;
26920;SDS011;14483;47.844;9.660;2023-07-22T12:05:10;1.92;;;1.23;;
26920;SDS011;14483;47.844;9.660;2023-07-22T12:07:38;1.80;;;1.27;;
26920;SDS011;14483;47.844;9.660;2023-07-22T12:10:06;3.95;;;1.75;;
26920;SDS011;14483;47.844;9.660;2023-07-22T12:12:33;2.88;;;1.38;;
26920;SDS011;14483;47.844;9.660;2023-07-22T12:15:01;3.10;;;1.35;;
26920;SDS011;14483;47.844;9.660;2023-07-22T12:17:29;2.72;;;1.20;;
26920;SDS011;14483;47.844;9.660;2023-07-22T12:19:55;2.83;;;1.27;;
26920;SDS011;14483;47.844;9.660;2023-07-22T12:22:22;2.50;;;1.58;;
26920;SDS011;14483;47.844;9.660;2023-07-22T12:24:49;2.63;;;1.27;;
26920;SDS011;14483;47.844;9.660;2023-07-22T12:27:16;4.30;;;1.20;;
26920;SDS011;14483;47.844;9.660;2023-07-22T12:29:42;2.03;;;1.10;;
26920;SDS011;14483;47.844;9.660;2023-07-22T12:32:08;3.03;;;1.48;;
26920;SDS011;14483;47.844;9.660;2023-07-22T12:34:35;3.28;;;1.63;;
26920;SDS011;14483;47.844;9.660;2023-07-22T12:37:01;1.52;;;0.93;;
26920;SDS011;14483;47.844;9.660;2023-07-22T12:39:28;2.60;;;1.50;;
26920;SDS011;14483;47.844;9.660;2023-07-22T12:41:56;4.07;;;1.40;;
26920;SDS011;14483;47.844;9.660;2023-07-22T12:44:23;2.47;;;1.63;;
26920;SDS011;14483;47.844;9.660;2023-07-22T12:46:50;1.83;;;1.20;;
26920;SDS011;14483;47.844;9.660;2023-07-22T12:49:18;2.42;;;1.30;;
26920;SDS011;14483;47.844;9.660;2023-07-22T12:51:44;5.30;;;1.30;;
26920;SDS011;14483;47.844;9.660;2023-07-22T12:54:11;3.70;;;1.63;;
26920;SDS011;14483;47.844;9.660;2023-07-22T12:56:37;1.73;;;1.23;;
26920;SDS011;14483;47.844;9.660;2023-07-22T12:59:05;3.00;;;1.58;;
26920;SDS011;14483;47.844;9.660;2023-07-22T13:01:31;6.00;;;2.20;;
26920;SDS011;14483;47.844;9.660;2023-07-22T13:03:57;4.47;;;1.42;;
26920;SDS011;14483;47.844;9.660;2023-07-22T13:06:24;4.00;;;1.38;;
26920;SDS011;14483;47.844;9.660;2023-07-22T13:08:51;4.05;;;1.60;;
26920;SDS011;14483;47.844;9.660;2023-07-22T13:11:17;2.42;;;1.63;;
26920;SDS011;14483;47.844;9.660;2023-07-22T13:13:43;2.75;;;1.55;;
26920;SDS011;14483;47.844;9.660;2023-07-22T13:16:11;2.78;;;1.13;;
26920;SDS011;14483;47.844;9.660;2023-07-22T13:18:38;2.80;;;1.45;;
26920;SDS011;14483;47.844;9.660;2023-07-22T13:21:04;3.17;;;1.30;;
26920;SDS011;14483;47.844;9.660;2023-07-22T13:23:30;3.22;;;1.45;;
26920;SDS011;14483;47.844;9.660;2023-07-22T13:25:57;2.80;;;2.03;;
26920;SDS011;14483;47.844;9.660;2023-07-22T13:28:23;3.15;;;1.50;;
26920;SDS011;14483;47.844;9.660;2023-07-22T13:30:50;4.00;;;1.50;;
26920;SDS011;14483;47.844;9.660;2023-07-22T13:33:17;4.22;;;1.58;;
26920;SDS011;14483;47.844;9.660;2023-07-22T13:35:44;3.88;;;1.42;;
26920;SDS011;14483;47.844;9.660;2023-07-22T13:38:10;4.43;;;2.00;;
26920;SDS011;14483;47.844;9.660;2023-07-22T13:40:37;2.45;;;1.42;;
26920;SDS011;14483;47.844;9.660;2023-07-22T13:43:03;3.03;;;1.50;;
26920;SDS011;14483;47.844;9.660;2023-07-22T13:45:30;5.68;;;1.70;;
26920;SDS011;14483;47.844;9.660;2023-07-22T13:47:56;3.60;;;1.25;;
26920;SDS011;14483;47.844;9.660;2023-07-22T13:50:24;3.10;;;1.50;;
26920;SDS011;14483;47.844;9.660;2023-07-22T13:52:50;4.47;;;1.80;;
26920;SDS011;14483;47.844;9.660;2023-07-22T13:55:16;2.85;;;1.95;;
26920;SDS011;14483;47.844;9.660;2023-07-22T13:57:43;3.22;;;1.98;;
26920;SDS011;14483;47.844;9.660;2023-07-22T14:00:09;2.25;;;1.63;;
26920;SDS011;14483;47.844;9.660;2023-07-22T14:02:36;5.65;;;1.80;;
26920;SDS011;14483;47.844;9.660;2023-07-22T14:05:03;3.50;;;2.13;;
26920;SDS011;14483;47.844;9.660;2023-07-22T14:07:31;3.78;;;1.70;;
26920;SDS011;14483;47.844;9.660;2023-07-22T14:09:57;2.30;;;1.50;;
26920;SDS011;14483;47.844;9.660;2023-07-22T14:12:24;3.60;;;1.83;;
26920;SDS011;14483;47.844;9.660;2023-07-22T14:14:50;3.45;;;1.63;;
26920;SDS011;14483;47.844;9.660;2023-07-22T14:17:17;2.95;;;1.75;;
26920;SDS011;14483;47.844;9.660;2023-07-22T14:19:43;4.93;;;2.05;;
26920;SDS011;14483;47.844;9.660;2023-07-22T14:22:09;2.13;;;1.33;;
26920;SDS011;14483;47.844;9.660;2023-07-22T14:24:37;2.00;;;1.58;;
26920;SDS011;14483;47.844;9.660;2023-07-22T14:27:04;3.00;;;1.67;;
26920;SDS011;14483;47.844;9.660;2023-07-22T14:29:30;1.80;;;1.17;;
26920;SDS011;14483;47.844;9.660;2023-07-22T14:31:56;4.28;;;1.70;;
26920;SDS011;14483;47.844;9.660;2023-07-22T14:34:23;2.63;;;1.55;;
26920;SDS011;14483;47.844;9.660;2023-07-22T14:36:49;3.85;;;2.42;;
26920;SDS011;14483;47.844;9.660;2023-07-22T14:39:16;3.95;;;1.92;;
26920;SDS011;14483;47.844;9.660;2023-07-22T14:41:44;4.30;;;2.03;;
26920;SDS011;14483;47.844;9.660;2023-07-22T14:44:10;3.72;;;1.75;;
26920;SDS011;14483;47.844;9.660;2023-07-22T14:46:36;2.22;;;1.83;;
26920;SDS011;14483;47.844;9.660;2023-07-22T14:49:03;4.30;;;1.65;;